createdAt,value
2023-04-01T00:01:20.033Z,11.03
2023-04-01T00:03:49.285Z,10.53
2023-04-01T00:06:20.397Z,11.57
2023-04-01T00:08:50.660Z,9.60
2023-04-01T00:11:20.816Z,8.87
2023-04-01T00:13:50.228Z,9.80
2023-04-01T00:16:22.238Z,8.40
2023-04-01T00:18:52.368Z,8.37
2023-04-01T00:21:22.954Z,9.07
2023-04-01T00:23:53.415Z,7.07
2023-04-01T00:26:23.439Z,6.97
2023-04-01T00:28:52.754Z,7.20
2023-04-01T00:31:21.608Z,6.93
2023-04-01T00:33:50.536Z,6.10
2023-04-01T00:36:22.495Z,5.67
2023-04-01T00:38:52.869Z,7.30
2023-04-01T00:41:23.047Z,7.53
2023-04-01T00:44:10.266Z,8.33
2023-04-01T00:46:38.705Z,8.60
2023-04-01T00:49:07.252Z,8.10
2023-04-01T00:51:37.374Z,9.37
2023-04-01T00:54:07.739Z,9.13
2023-04-01T00:56:39.228Z,8.70
2023-04-01T00:59:16.780Z,9.20
2023-04-01T01:01:45.717Z,9.67
2023-04-01T01:04:25.942Z,8.67
2023-04-01T01:07:05.616Z,8.73
2023-04-01T01:09:49.238Z,8.53
2023-04-01T01:12:22.656Z,7.77
2023-04-01T01:15:02.801Z,7.37
2023-04-01T01:17:47.259Z,7.27
2023-04-01T01:21:04.839Z,7.13
2023-04-01T01:24:14.256Z,7.73
2023-04-01T01:27:02.962Z,7.43
2023-04-01T01:30:20.029Z,7.67
2023-04-01T01:33:34.952Z,7.33
2023-04-01T01:36:08.837Z,8.47
2023-04-01T01:38:38.570Z,7.70
2023-04-01T01:41:10.056Z,7.67
2023-04-01T01:43:42.932Z,7.27
2023-04-01T01:46:19.021Z,7.97
2023-04-01T01:48:49.701Z,9.10
2023-04-01T01:51:20.146Z,11.07
2023-04-01T01:53:48.683Z,10.13
2023-04-01T01:56:22.736Z,10.37
2023-04-01T01:58:54.880Z,10.87
2023-04-01T02:01:29.391Z,9.30
2023-04-01T02:04:02.201Z,9.97
2023-04-01T02:06:39.081Z,9.60
2023-04-01T02:09:11.600Z,7.50
2023-04-01T02:11:48.111Z,7.23
2023-04-01T02:14:19.619Z,7.13
2023-04-01T02:16:54.627Z,7.20
2023-04-01T02:19:27.057Z,7.00
2023-04-01T02:22:02.008Z,6.23
2023-04-01T02:24:33.897Z,6.53
2023-04-01T02:27:02.371Z,6.97
2023-04-01T02:29:32.539Z,7.57
2023-04-01T02:32:02.224Z,8.80
2023-04-01T02:34:31.366Z,8.77
2023-04-01T02:37:03.376Z,9.60
2023-04-01T02:39:32.407Z,12.77
2023-04-01T02:42:00.872Z,13.20
2023-04-01T02:44:29.279Z,13.17
2023-04-01T02:46:57.668Z,14.70
2023-04-01T02:49:26.213Z,15.70
2023-04-01T02:51:54.799Z,17.10
2023-04-01T02:54:24.583Z,18.23
2023-04-01T02:56:53.130Z,17.80
2023-04-01T02:59:21.636Z,17.77
2023-04-01T03:01:50.009Z,18.50
2023-04-01T03:04:18.577Z,17.80
2023-04-01T03:06:47.047Z,18.80
2023-04-01T03:09:16.242Z,18.50
2023-04-01T03:11:46.159Z,16.20
2023-04-01T03:14:14.778Z,18.30
2023-04-01T03:16:43.237Z,18.53
2023-04-01T03:19:11.837Z,20.17
2023-04-01T03:21:40.317Z,20.03
2023-04-01T03:24:09.574Z,16.13
2023-04-01T03:26:37.956Z,16.00
2023-04-01T03:29:07.707Z,13.10
2023-04-01T03:31:36.431Z,13.23
2023-04-01T03:34:04.872Z,12.30
2023-04-01T03:36:33.304Z,11.97
2023-04-01T03:39:01.698Z,9.47
2023-04-01T03:41:39.368Z,11.03
2023-04-01T03:44:09.456Z,9.40
2023-04-01T03:46:38.076Z,10.13
2023-04-01T03:49:12.905Z,9.10
2023-04-01T03:51:43.131Z,7.90
2023-04-01T03:54:12.685Z,8.70
2023-04-01T03:56:41.149Z,9.60
2023-04-01T03:59:11.339Z,9.50
2023-04-01T04:01:39.934Z,8.30
2023-04-01T04:04:09.623Z,8.70
2023-04-01T04:06:38.040Z,9.53
2023-04-01T04:09:06.559Z,10.40
2023-04-01T04:11:34.913Z,11.50
2023-04-01T04:14:03.955Z,10.80
2023-04-01T04:16:33.881Z,12.23
2023-04-01T04:19:04.598Z,11.50
2023-04-01T04:21:33.408Z,13.40
2023-04-01T04:24:03.237Z,12.70
2023-04-01T04:26:48.855Z,14.57
2023-04-01T04:29:17.380Z,14.73
2023-04-01T04:31:47.394Z,14.20
2023-04-01T04:34:15.850Z,14.30
2023-04-01T04:36:45.376Z,14.90
2023-04-01T04:39:14.092Z,14.37
2023-04-01T04:41:44.465Z,13.97
2023-04-01T04:44:12.929Z,15.70
2023-04-01T04:46:41.941Z,14.67
2023-04-01T04:49:20.385Z,15.37
2023-04-01T04:51:49.306Z,16.30
2023-04-01T04:54:24.009Z,17.30
2023-04-01T04:56:58.258Z,17.37
2023-04-01T04:59:28.438Z,19.10
2023-04-01T05:02:05.702Z,17.40
2023-04-01T05:04:38.834Z,19.70
2023-04-01T05:07:10.925Z,20.47
2023-04-01T05:09:39.319Z,20.67
2023-04-01T05:12:08.317Z,22.07
2023-04-01T05:14:55.376Z,22.50
2023-04-01T05:17:23.953Z,21.13
2023-04-01T05:19:53.872Z,22.13
2023-04-01T05:22:22.525Z,23.80
2023-04-01T05:24:51.141Z,20.87
2023-04-01T05:27:19.761Z,16.40
2023-04-01T05:29:48.358Z,15.17
2023-04-01T05:32:40.684Z,16.83
2023-04-01T05:35:11.368Z,16.10
2023-04-01T05:37:39.798Z,16.00
2023-04-01T05:40:10.407Z,14.33
2023-04-01T05:42:38.997Z,15.97
2023-04-01T05:45:10.008Z,15.43
2023-04-01T05:48:08.049Z,16.17
2023-04-01T05:50:44.128Z,16.57
2023-04-01T05:53:13.676Z,16.43
2023-04-01T05:55:44.695Z,14.90
2023-04-01T05:58:13.264Z,15.17
2023-04-01T06:00:44.969Z,16.80
2023-04-01T06:03:15.016Z,15.63
2023-04-01T06:05:46.207Z,16.20
2023-04-01T06:08:19.795Z,16.67
2023-04-01T06:11:06.931Z,16.07
2023-04-01T06:14:03.794Z,18.00
2023-04-01T06:16:47.181Z,17.43
2023-04-01T06:19:30.322Z,18.90
2023-04-01T06:22:26.498Z,18.70
2023-04-01T06:25:36.837Z,20.00
2023-04-01T06:28:43.522Z,19.70
2023-04-01T06:31:28.465Z,19.30
2023-04-01T06:34:17.925Z,21.30
2023-04-01T06:37:12.177Z,18.13
2023-04-01T06:40:05.460Z,19.83
2023-04-01T06:43:02.495Z,20.03
2023-04-01T06:45:57.160Z,20.97
2023-04-01T06:49:05.534Z,21.50
2023-04-01T06:51:53.666Z,22.07
2023-04-01T06:54:46.820Z,20.03
2023-04-01T06:57:54.401Z,18.40
2023-04-01T07:00:32.174Z,16.43
2023-04-01T07:03:16.840Z,16.00
2023-04-01T07:05:46.234Z,16.27
2023-04-01T07:08:23.337Z,14.13
2023-04-01T07:10:58.960Z,17.27
2023-04-01T07:13:51.672Z,18.00
2023-04-01T07:16:26.615Z,17.30
2023-04-01T07:19:03.320Z,18.53
2023-04-01T07:21:51.924Z,17.33
2023-04-01T07:24:34.593Z,19.20
2023-04-01T07:27:14.384Z,18.80
2023-04-01T07:29:44.517Z,18.90
2023-04-01T07:32:36.501Z,18.07
2023-04-01T07:35:20.633Z,16.80
2023-04-01T07:38:08.456Z,17.70
2023-04-01T07:40:47.981Z,16.70
2023-04-01T07:43:58.390Z,16.90
2023-04-01T07:46:51.650Z,16.47
2023-04-01T07:49:28.341Z,16.43
2023-04-01T07:52:04.186Z,17.23
2023-04-01T07:54:45.650Z,17.40
2023-04-01T07:57:21.736Z,17.70
2023-04-01T08:00:05.283Z,17.00
2023-04-01T08:03:32.769Z,18.40
2023-04-01T08:06:08.887Z,18.33
2023-04-01T08:08:53.704Z,15.00
2023-04-01T08:12:14.616Z,15.70
2023-04-01T08:15:18.716Z,16.10
2023-04-01T08:18:25.953Z,12.47
2023-04-01T08:21:00.407Z,13.97
2023-04-01T08:23:32.407Z,14.20
2023-04-01T08:26:08.562Z,14.47
2023-04-01T08:28:46.894Z,13.93
2023-04-01T08:31:23.357Z,11.47
2023-04-01T08:33:54.999Z,9.93
2023-04-01T08:36:28.949Z,11.10
2023-04-01T08:39:17.831Z,9.30
2023-04-01T08:42:42.128Z,8.60
2023-04-01T08:45:41.058Z,8.60
2023-04-01T08:48:47.302Z,8.20
2023-04-01T08:51:49.611Z,9.93
2023-04-01T08:55:15.961Z,8.50
2023-04-01T08:58:50.502Z,7.07
2023-04-01T09:01:48.682Z,6.70
2023-04-01T09:05:01.675Z,6.83
2023-04-01T09:07:46.148Z,6.40
2023-04-01T09:10:36.847Z,6.50
2023-04-01T09:14:22.260Z,7.37
2023-04-01T09:17:44.784Z,6.87
2023-04-01T09:20:45.241Z,7.70
2023-04-01T09:23:38.873Z,6.87
2023-04-01T09:26:46.671Z,7.90
2023-04-01T09:29:33.038Z,8.33
2023-04-01T09:32:49.019Z,7.97
2023-04-01T09:35:33.757Z,8.27
2023-04-01T09:38:22.689Z,8.70
2023-04-01T09:40:58.858Z,9.30
2023-04-01T09:43:59.069Z,10.30
2023-04-01T09:47:03.184Z,9.10
2023-04-01T09:49:58.025Z,9.70
2023-04-01T09:52:47.480Z,9.33
2023-04-01T09:56:33.122Z,8.73
2023-04-01T09:59:47.550Z,10.53
2023-04-01T10:03:24.543Z,10.03
2023-04-01T10:06:27.370Z,11.07
2023-04-01T10:09:58.822Z,11.90
2023-04-01T10:13:25.815Z,15.30
2023-04-01T10:16:42.537Z,14.90
2023-04-01T10:20:09.276Z,16.40
2023-04-01T10:23:15.189Z,14.87
2023-04-01T10:26:40.789Z,17.30
2023-04-01T10:30:27.272Z,13.70
2023-04-01T10:33:48.940Z,13.63
2023-04-01T10:36:52.895Z,12.53
2023-04-01T10:39:59.985Z,13.40
2023-04-01T10:43:49.441Z,13.03
2023-04-01T10:47:19.267Z,14.87
2023-04-01T10:50:16.953Z,14.50
2023-04-01T10:53:30.230Z,15.70
2023-04-01T10:56:48.647Z,15.10
2023-04-01T11:00:20.457Z,15.00
2023-04-01T11:04:10.496Z,16.00
2023-04-01T11:07:29.987Z,14.80
2023-04-01T11:10:49.347Z,14.40
2023-04-01T11:13:57.211Z,14.50
2023-04-01T11:17:18.473Z,14.20
2023-04-01T11:20:50.037Z,12.90
2023-04-01T11:23:58.326Z,12.50
2023-04-01T11:26:55.416Z,13.30
2023-04-01T11:30:05.313Z,11.37
2023-04-01T11:32:50.160Z,12.03
2023-04-01T11:35:40.129Z,11.00
2023-04-01T11:38:28.769Z,13.97
2023-04-01T11:41:16.102Z,12.10
2023-04-01T11:44:20.941Z,12.70
2023-04-01T11:47:28.092Z,11.60
2023-04-01T11:50:17.918Z,11.17
2023-04-01T11:53:21.212Z,10.13
2023-04-01T11:56:03.971Z,10.20
2023-04-01T11:59:15.955Z,9.70
2023-04-01T12:02:01.721Z,12.90
2023-04-01T12:05:31.152Z,9.43
2023-04-01T12:08:30.472Z,9.00
2023-04-01T12:11:07.248Z,9.07
2023-04-01T12:13:47.934Z,8.67
2023-04-01T12:16:52.626Z,8.07
2023-04-01T12:19:31.675Z,8.00
2023-04-01T12:22:22.562Z,8.30
2023-04-01T12:24:57.756Z,9.47
2023-04-01T12:27:41.736Z,9.03
2023-04-01T12:30:44.729Z,7.70
2023-04-01T12:33:55.324Z,7.87
2023-04-01T12:36:45.469Z,8.37
2023-04-01T12:39:46.820Z,8.23
2023-04-01T12:42:34.899Z,10.40
2023-04-01T12:45:35.557Z,10.23
2023-04-01T12:48:47.503Z,11.53
2023-04-01T12:51:39.222Z,11.13
2023-04-01T12:54:57.525Z,13.60
2023-04-01T12:58:18.159Z,10.67
2023-04-01T13:01:37.188Z,11.57
2023-04-01T13:04:47.040Z,12.70
2023-04-01T13:07:35.057Z,10.80
2023-04-01T13:10:16.062Z,11.17
2023-04-01T13:13:11.510Z,11.40
2023-04-01T13:15:47.451Z,11.23
2023-04-01T13:18:30.588Z,10.90
2023-04-01T13:21:10.244Z,11.70
2023-04-01T13:23:55.348Z,12.03
2023-04-01T13:26:34.900Z,12.90
2023-04-01T13:29:14.027Z,13.13
2023-04-01T13:31:59.368Z,14.87
2023-04-01T13:34:41.963Z,14.00
2023-04-01T13:37:37.012Z,14.47
2023-04-01T13:40:28.057Z,13.83
2023-04-01T13:43:04.424Z,15.60
2023-04-01T13:45:48.569Z,15.90
2023-04-01T13:48:32.594Z,13.63
2023-04-01T13:52:01.296Z,10.90
2023-04-01T13:55:04.307Z,12.03
2023-04-01T13:58:13.331Z,12.00
2023-04-01T14:00:54.109Z,10.67
2023-04-01T14:03:34.241Z,10.77
2023-04-01T14:06:18.523Z,8.37
2023-04-01T14:09:41.667Z,8.40
2023-04-01T14:12:26.706Z,8.53
2023-04-01T14:15:20.669Z,9.70
2023-04-01T14:18:32.389Z,9.77
2023-04-01T14:21:19.940Z,9.30
2023-04-01T14:24:24.471Z,9.07
2023-04-01T14:27:42.151Z,8.50
2023-04-01T14:30:29.538Z,8.30
2023-04-01T14:33:09.349Z,9.23
2023-04-01T14:35:47.715Z,9.20
2023-04-01T14:38:37.521Z,9.50
2023-04-01T14:41:21.450Z,11.47
2023-04-01T14:44:13.739Z,13.73
2023-04-01T14:47:20.557Z,11.00
2023-04-01T14:49:53.138Z,11.73
2023-04-01T14:52:29.978Z,11.30
2023-04-01T14:55:00.500Z,11.80
2023-04-01T14:57:32.287Z,12.50
2023-04-01T15:00:15.672Z,13.37
2023-04-01T15:03:02.360Z,11.60
2023-04-01T15:05:41.332Z,13.07
2023-04-01T15:08:20.154Z,13.13
2023-04-01T15:11:22.527Z,14.13
2023-04-01T15:14:23.497Z,15.80
2023-04-01T15:17:08.368Z,14.87
2023-04-01T15:19:53.333Z,17.10
2023-04-01T15:22:58.032Z,14.20
2023-04-01T15:25:46.137Z,14.73
2023-04-01T15:28:32.025Z,16.00
2023-04-01T15:31:08.416Z,16.67
2023-04-01T15:33:55.092Z,15.70
2023-04-01T15:36:40.322Z,14.83
2023-04-01T15:39:17.814Z,16.03
2023-04-01T15:42:09.518Z,16.93
2023-04-01T15:45:00.834Z,17.43
2023-04-01T15:47:42.077Z,16.57
2023-04-01T15:50:48.147Z,16.07
2023-04-01T15:53:32.943Z,14.43
2023-04-01T15:56:30.462Z,14.80
2023-04-01T15:59:16.990Z,14.27
2023-04-01T16:01:57.365Z,12.93
2023-04-01T16:04:46.326Z,13.00
2023-04-01T16:07:46.543Z,12.17
2023-04-01T16:10:41.902Z,13.30
2023-04-01T16:13:34.303Z,12.60
2023-04-01T16:16:14.433Z,11.47
2023-04-01T16:19:14.426Z,11.50
2023-04-01T16:21:50.512Z,13.00
2023-04-01T16:24:32.726Z,11.57
2023-04-01T16:27:07.881Z,12.90
2023-04-01T16:29:48.480Z,14.47
2023-04-01T16:32:39.743Z,12.40
2023-04-01T16:35:32.507Z,12.40
2023-04-01T16:38:11.648Z,13.50
2023-04-01T16:40:49.350Z,13.90
2023-04-01T16:43:28.226Z,14.00
2023-04-01T16:46:20.124Z,15.07
2023-04-01T16:49:05.317Z,12.53
2023-04-01T16:51:48.210Z,13.13
2023-04-01T16:54:30.072Z,12.83
2023-04-01T16:57:19.614Z,12.93
2023-04-01T16:59:58.549Z,12.70
2023-04-01T17:02:32.342Z,12.63
2023-04-01T17:05:08.481Z,13.70
2023-04-01T17:07:49.352Z,13.13
2023-04-01T17:10:44.546Z,13.53
2023-04-01T17:13:49.604Z,12.83
2023-04-01T17:16:57.506Z,12.00
2023-04-01T17:19:43.559Z,12.40
2023-04-01T17:22:31.093Z,11.80
2023-04-01T17:25:25.448Z,11.93
2023-04-01T17:28:05.046Z,12.40
2023-04-01T17:30:40.663Z,12.43
2023-04-01T17:33:42.853Z,12.87
2023-04-01T17:36:30.472Z,13.73
2023-04-01T17:39:17.639Z,13.30
2023-04-01T17:41:54.630Z,12.37
2023-04-01T17:44:47.405Z,12.00
2023-04-01T17:47:40.813Z,10.77
2023-04-01T17:50:31.005Z,10.57
2023-04-01T17:53:16.679Z,10.80
2023-04-01T17:56:01.140Z,11.20
2023-04-01T17:58:36.449Z,10.23
2023-04-01T18:01:28.159Z,10.50
2023-04-01T18:04:39.018Z,11.73
2023-04-01T18:07:38.437Z,10.83
2023-04-01T18:10:29.637Z,10.30
2023-04-01T18:13:32.583Z,10.67
2023-04-01T18:16:20.991Z,10.87
2023-04-01T18:19:00.929Z,12.10
2023-04-01T18:21:45.190Z,11.30
2023-04-01T18:24:24.238Z,9.60
2023-04-01T18:27:04.017Z,9.53
2023-04-01T18:29:43.392Z,8.67
2023-04-01T18:32:36.235Z,8.60
2023-04-01T18:35:23.399Z,8.23
2023-04-01T18:37:59.680Z,7.23
2023-04-01T18:40:34.672Z,7.07
2023-04-01T18:43:18.864Z,7.73
2023-04-01T18:45:55.825Z,7.90
2023-04-01T18:48:52.529Z,8.37
2023-04-01T18:51:28.806Z,9.00
2023-04-01T18:54:05.045Z,8.37
2023-04-01T18:56:38.366Z,8.97
2023-04-01T18:59:12.881Z,9.30
2023-04-01T19:01:49.715Z,9.63
2023-04-01T19:04:28.871Z,10.43
2023-04-01T19:07:01.634Z,9.23
2023-04-01T19:09:45.649Z,9.60
2023-04-01T19:12:43.906Z,11.10
2023-04-01T19:15:33.207Z,9.70
2023-04-01T19:18:49.564Z,10.40
2023-04-01T19:21:24.143Z,11.07
2023-04-01T19:24:46.629Z,11.67
2023-04-01T19:27:32.679Z,10.50
2023-04-01T19:30:30.366Z,12.07
2023-04-01T19:33:12.661Z,13.03
2023-04-01T19:35:49.588Z,12.43
2023-04-01T19:38:28.846Z,12.20
2023-04-01T19:41:03.378Z,10.87
2023-04-01T19:43:53.981Z,11.67
2023-04-01T19:46:32.820Z,11.40
2023-04-01T19:49:38.506Z,13.07
2023-04-01T19:52:16.879Z,12.40
2023-04-01T19:54:51.888Z,13.57
2023-04-01T19:57:34.467Z,13.83
2023-04-01T20:00:09.943Z,13.70
2023-04-01T20:03:17.098Z,12.67
2023-04-01T20:06:03.077Z,13.27
2023-04-01T20:08:41.214Z,14.70
2023-04-01T20:11:33.105Z,14.10
2023-04-01T20:14:21.178Z,14.23
2023-04-01T20:17:03.658Z,13.53
2023-04-01T20:19:41.316Z,12.67
2023-04-01T20:22:29.783Z,14.37
2023-04-01T20:25:07.107Z,14.33
2023-04-01T20:27:42.080Z,13.67
2023-04-01T20:31:02.492Z,13.70
2023-04-01T20:34:01.260Z,14.67
2023-04-01T20:36:38.281Z,14.00
2023-04-01T20:39:55.148Z,16.03
2023-04-01T20:42:43.234Z,15.20
2023-04-01T20:45:37.323Z,15.57
2023-04-01T20:48:33.096Z,15.60
2023-04-01T20:51:07.700Z,16.57
2023-04-01T20:53:42.985Z,16.50
2023-04-01T20:56:43.579Z,14.70
2023-04-01T20:59:47.189Z,13.70
2023-04-01T21:02:38.066Z,13.47
2023-04-01T21:05:46.992Z,14.50
2023-04-01T21:08:27.180Z,15.10
2023-04-01T21:11:06.126Z,15.80
2023-04-01T21:13:54.077Z,16.77
2023-04-01T21:16:38.455Z,14.83
2023-04-01T21:19:27.820Z,16.00
2023-04-01T21:22:32.293Z,15.53
2023-04-01T21:25:32.867Z,14.60
2023-04-01T21:28:39.974Z,15.13
2023-04-01T21:31:29.352Z,16.73
2023-04-01T21:34:37.127Z,14.53
2023-04-01T21:37:49.481Z,14.40
2023-04-01T21:41:04.879Z,15.73
2023-04-01T21:44:06.193Z,15.60
2023-04-01T21:47:43.854Z,16.00
2023-04-01T21:51:05.966Z,17.03
2023-04-01T21:54:24.432Z,17.47
2023-04-01T21:57:40.106Z,15.47
2023-04-01T22:00:27.828Z,16.67
2023-04-01T22:03:52.905Z,17.37
2023-04-01T22:06:29.950Z,17.37
2023-04-01T22:09:13.622Z,19.10
2023-04-01T22:11:57.062Z,18.67
2023-04-01T22:14:33.614Z,17.93
2023-04-01T22:17:14.744Z,19.70
2023-04-01T22:19:54.124Z,16.50
2023-04-01T22:22:29.918Z,17.83
2023-04-01T22:25:09.831Z,17.60
2023-04-01T22:27:46.937Z,18.20
2023-04-01T22:30:22.653Z,18.07
2023-04-01T22:32:55.128Z,17.60
2023-04-01T22:35:37.134Z,17.37
2023-04-01T22:38:23.677Z,18.80
2023-04-01T22:41:02.967Z,16.53
2023-04-01T22:43:39.369Z,15.37
2023-04-01T22:46:50.028Z,16.37
2023-04-01T22:49:25.545Z,14.40
2023-04-01T22:51:59.806Z,13.90
2023-04-01T22:54:34.731Z,14.37
2023-04-01T22:57:10.660Z,12.83
2023-04-01T22:59:47.057Z,12.93
2023-04-01T23:02:20.708Z,11.33
2023-04-01T23:04:57.795Z,12.37
2023-04-01T23:07:47.984Z,14.87
2023-04-01T23:10:24.479Z,15.83
2023-04-01T23:12:57.848Z,13.97
2023-04-01T23:15:27.296Z,14.73
2023-04-01T23:18:28.144Z,13.27
2023-04-01T23:21:12.173Z,14.60
2023-04-01T23:23:55.378Z,13.80
2023-04-01T23:26:32.107Z,14.17
2023-04-01T23:29:02.626Z,13.67
2023-04-01T23:31:38.434Z,15.90
2023-04-01T23:34:30.066Z,14.57
2023-04-01T23:37:03.037Z,15.97
2023-04-01T23:39:36.733Z,14.53
2023-04-01T23:42:08.796Z,15.33
2023-04-01T23:44:39.120Z,14.80
2023-04-01T23:47:10.128Z,14.50
2023-04-01T23:49:42.509Z,15.10
2023-04-01T23:52:22.227Z,15.17
2023-04-01T23:54:55.633Z,13.90
2023-04-01T23:57:31.061Z,13.47
